createdAt,value
2018-07-23T00:00:30.801Z,7.10
2018-07-23T00:01:30.817Z,7.30
2018-07-23T00:02:30.835Z,7.50
2018-07-23T00:03:30.865Z,7.30
2018-07-23T00:04:30.880Z,7.40
2018-07-23T00:05:30.902Z,7.20
2018-07-23T00:06:30.948Z,7.30
2018-07-23T00:07:30.946Z,7.40
2018-07-23T00:08:30.965Z,7.00
2018-07-23T00:09:30.984Z,7.20
2018-07-23T00:10:31.000Z,7.00
2018-07-23T00:11:31.033Z,7.20
2018-07-23T00:12:31.043Z,7.40
2018-07-23T00:13:31.071Z,7.40
2018-07-23T00:14:31.087Z,7.40
2018-07-23T00:15:31.113Z,7.30
2018-07-23T00:16:31.135Z,7.20
2018-07-23T00:17:31.149Z,6.80
2018-07-23T00:18:31.174Z,7.40
2018-07-23T00:19:31.193Z,7.20
2018-07-23T00:20:31.218Z,7.30
2018-07-23T00:21:31.243Z,7.20
2018-07-23T00:22:31.257Z,7.00
2018-07-23T00:23:31.279Z,7.40
2018-07-23T00:24:31.295Z,7.30
2018-07-23T00:25:31.319Z,7.30
2018-07-23T00:26:31.342Z,7.10
2018-07-23T00:27:31.362Z,7.30
2018-07-23T00:28:31.380Z,7.10
2018-07-23T00:29:31.406Z,6.90
2018-07-23T00:30:31.428Z,7.20
2018-07-23T00:31:31.448Z,7.30
2018-07-23T00:32:31.497Z,7.00
2018-07-23T00:33:31.500Z,7.30
2018-07-23T00:34:31.506Z,7.40
2018-07-23T00:35:31.530Z,7.10
2018-07-23T00:36:31.554Z,7.40
2018-07-23T00:37:31.572Z,6.90
2018-07-23T00:38:31.592Z,7.30
2018-07-23T00:39:31.617Z,7.40
2018-07-23T00:40:31.633Z,7.20
2018-07-23T00:41:31.656Z,7.40
2018-07-23T00:42:31.675Z,7.60
2018-07-23T00:43:31.700Z,7.30
2018-07-23T00:44:31.723Z,7.50
2018-07-23T00:45:31.743Z,6.80
2018-07-23T00:46:31.758Z,7.20
2018-07-23T00:47:31.782Z,6.90
2018-07-23T00:48:31.812Z,7.30
2018-07-23T00:49:31.821Z,7.60
2018-07-23T00:50:31.835Z,7.40
2018-07-23T00:51:31.871Z,7.70
2018-07-23T00:52:31.894Z,7.30
2018-07-23T00:53:31.908Z,7.30
2018-07-23T00:54:31.925Z,7.40
2018-07-23T00:55:31.948Z,7.30
2018-07-23T00:56:31.970Z,7.20
2018-07-23T00:57:31.991Z,7.10
2018-07-23T00:58:32.016Z,7.50
2018-07-23T00:59:32.031Z,7.30
2018-07-23T01:00:32.053Z,7.30
2018-07-23T01:01:32.076Z,7.40
2018-07-23T01:02:32.098Z,7.60
2018-07-23T01:03:32.114Z,7.50
2018-07-23T01:04:32.132Z,7.40
2018-07-23T01:05:32.159Z,7.70
2018-07-23T01:06:32.180Z,7.20
2018-07-23T01:07:32.197Z,7.40
2018-07-23T01:08:32.232Z,7.10
2018-07-23T01:09:32.255Z,7.50
2018-07-23T01:10:32.262Z,7.50
2018-07-23T01:11:32.294Z,7.10
2018-07-23T01:12:32.304Z,7.20
2018-07-23T01:13:32.324Z,7.50
2018-07-23T01:14:32.352Z,7.30
2018-07-23T01:15:32.436Z,7.70
2018-07-23T01:16:32.391Z,7.60
2018-07-23T01:17:32.441Z,7.30
2018-07-23T01:18:32.435Z,7.40
2018-07-23T01:19:32.466Z,7.60
2018-07-23T01:20:32.472Z,7.30
2018-07-23T01:21:32.499Z,7.20
2018-07-23T01:22:32.515Z,7.40
2018-07-23T01:23:32.543Z,7.40
2018-07-23T01:24:32.559Z,7.10
2018-07-23T01:25:32.575Z,7.30
2018-07-23T01:26:32.600Z,7.40
2018-07-23T01:27:32.616Z,7.50
2018-07-23T01:28:32.650Z,7.40
2018-07-23T01:29:32.666Z,7.70
2018-07-23T01:30:32.695Z,7.40
2018-07-23T01:31:32.704Z,7.60
2018-07-23T01:32:32.717Z,7.50
2018-07-23T01:33:32.753Z,7.30
2018-07-23T01:34:32.769Z,7.10
2018-07-23T01:35:32.791Z,7.50
2018-07-23T01:36:32.810Z,7.50
2018-07-23T01:37:32.829Z,7.20
2018-07-23T01:38:32.853Z,7.40
2018-07-23T01:39:32.869Z,7.40
2018-07-23T01:40:32.890Z,7.10
2018-07-23T01:41:32.912Z,7.30
2018-07-23T01:42:32.939Z,7.30
2018-07-23T01:43:32.949Z,7.50
2018-07-23T01:44:32.981Z,7.40
2018-07-23T01:45:33.002Z,7.30
2018-07-23T01:46:33.021Z,7.40
2018-07-23T01:47:33.043Z,7.40
2018-07-23T01:48:33.064Z,7.20
2018-07-23T01:49:33.074Z,7.10
2018-07-23T01:50:33.103Z,7.50
2018-07-23T01:51:33.187Z,7.40
2018-07-23T01:52:33.147Z,7.60
2018-07-23T01:53:33.164Z,7.20
2018-07-23T01:54:33.184Z,7.50
2018-07-23T01:55:33.219Z,7.50
2018-07-23T01:56:33.229Z,7.30
2018-07-23T01:57:33.253Z,7.20
2018-07-23T01:58:33.275Z,7.00
2018-07-23T01:59:33.298Z,7.10
2018-07-23T02:00:33.314Z,7.50
2018-07-23T02:01:33.332Z,7.70
2018-07-23T02:02:33.357Z,7.40
2018-07-23T02:03:33.379Z,7.20
2018-07-23T02:04:33.396Z,7.40
2018-07-23T02:05:33.417Z,7.50
2018-07-23T02:06:33.435Z,7.30
2018-07-23T02:07:33.455Z,7.40
2018-07-23T02:08:33.479Z,7.80
2018-07-23T02:09:33.501Z,7.50
2018-07-23T02:10:33.526Z,7.40
2018-07-23T02:11:33.538Z,7.50
2018-07-23T02:12:33.565Z,7.40
2018-07-23T02:13:33.739Z,7.10
2018-07-23T02:14:33.608Z,7.50
2018-07-23T02:15:33.625Z,7.40
2018-07-23T02:16:33.678Z,7.10
2018-07-23T02:17:33.662Z,7.60
2018-07-23T02:18:33.690Z,7.10
2018-07-23T02:19:33.706Z,7.20
2018-07-23T02:20:33.733Z,7.20
2018-07-23T02:21:33.756Z,7.40
2018-07-23T02:22:33.777Z,7.40
2018-07-23T02:23:33.795Z,7.30
2018-07-23T02:24:33.813Z,7.50
2018-07-23T02:25:33.835Z,7.30
2018-07-23T02:26:33.857Z,7.10
2018-07-23T02:27:33.872Z,7.20
2018-07-23T02:28:33.903Z,7.20
2018-07-23T02:29:33.926Z,7.10
2018-07-23T02:30:33.949Z,7.20
2018-07-23T02:31:33.959Z,7.70
2018-07-23T02:32:33.981Z,7.60
2018-07-23T02:33:34.005Z,7.30
2018-07-23T02:34:34.032Z,7.20
2018-07-23T02:35:34.043Z,7.30
2018-07-23T02:36:34.069Z,7.70
2018-07-23T02:37:34.090Z,7.20
2018-07-23T02:38:34.107Z,7.60
2018-07-23T02:39:34.131Z,7.10
2018-07-23T02:40:34.161Z,7.30
2018-07-23T02:41:34.168Z,7.30
2018-07-23T02:42:34.191Z,7.10
2018-07-23T02:43:34.212Z,7.20
2018-07-23T02:44:34.236Z,7.60
2018-07-23T02:45:34.258Z,7.10
2018-07-23T02:46:34.277Z,7.20
2018-07-23T02:47:34.299Z,7.40
2018-07-23T02:48:34.316Z,7.70
2018-07-23T02:49:34.338Z,7.00
2018-07-23T02:50:34.356Z,7.40
2018-07-23T02:51:34.378Z,7.60
2018-07-23T02:52:34.399Z,7.60
2018-07-23T02:53:34.420Z,7.40
2018-07-23T02:54:34.446Z,7.60
2018-07-23T02:55:34.464Z,7.00
2018-07-23T02:56:34.482Z,7.40
2018-07-23T02:57:34.504Z,7.90
2018-07-23T02:58:34.525Z,7.20
2018-07-23T02:59:34.571Z,7.30
2018-07-23T03:00:34.577Z,7.40
2018-07-23T03:01:34.618Z,7.00
2018-07-23T03:02:34.615Z,7.30
2018-07-23T03:03:34.632Z,7.40
2018-07-23T03:04:34.672Z,7.20
2018-07-23T03:05:34.675Z,6.80
2018-07-23T03:06:34.692Z,7.30
2018-07-23T03:07:34.718Z,7.30
2018-07-23T03:08:34.733Z,7.50
2018-07-23T03:09:34.754Z,7.50
2018-07-23T03:10:34.783Z,7.70
2018-07-23T03:11:34.799Z,7.20
2018-07-23T03:12:34.820Z,7.10
2018-07-23T03:13:34.847Z,7.50
2018-07-23T03:14:34.868Z,7.40
2018-07-23T03:15:34.881Z,7.30
2018-07-23T03:16:34.903Z,7.50
2018-07-23T03:17:34.920Z,7.20
2018-07-23T03:18:34.944Z,7.30
2018-07-23T03:19:34.964Z,7.40
2018-07-23T03:20:34.988Z,7.40
2018-07-23T03:21:35.047Z,7.20
2018-07-23T03:22:35.027Z,7.30
2018-07-23T03:23:35.054Z,7.50
2018-07-23T03:24:35.078Z,7.20
2018-07-23T03:25:35.093Z,7.30
2018-07-23T03:26:35.107Z,7.50
2018-07-23T03:27:35.136Z,7.40
2018-07-23T03:28:35.148Z,7.40
2018-07-23T03:29:35.180Z,6.90
2018-07-23T03:30:35.192Z,7.30
2018-07-23T03:31:35.217Z,7.20
2018-07-23T03:32:35.235Z,7.00
2018-07-23T03:33:35.260Z,7.50
2018-07-23T03:34:35.289Z,7.30
2018-07-23T03:35:35.295Z,7.50
2018-07-23T03:36:35.315Z,7.40
2018-07-23T03:37:35.340Z,7.20
2018-07-23T03:38:35.362Z,7.30
2018-07-23T03:39:35.383Z,7.30
2018-07-23T03:40:35.412Z,7.50
2018-07-23T03:41:35.430Z,7.50
2018-07-23T03:42:35.437Z,7.60
2018-07-23T03:43:35.494Z,7.50
2018-07-23T03:44:35.494Z,7.20
2018-07-23T03:45:35.507Z,7.70
2018-07-23T03:46:35.527Z,7.30
2018-07-23T03:47:35.550Z,7.60
2018-07-23T03:48:35.580Z,7.70
2018-07-23T03:49:35.601Z,7.60
2018-07-23T03:50:35.610Z,7.40
2018-07-23T03:51:35.637Z,7.50
2018-07-23T03:52:35.661Z,7.60
2018-07-23T03:53:35.676Z,7.80
2018-07-23T03:54:35.697Z,7.40
2018-07-23T03:55:35.717Z,7.20
2018-07-23T03:56:35.733Z,7.10
2018-07-23T03:57:35.766Z,7.30
2018-07-23T03:58:35.785Z,7.40
2018-07-23T03:59:35.811Z,7.60
2018-07-23T04:00:35.823Z,7.30
2018-07-23T04:01:35.841Z,7.50
2018-07-23T04:02:35.867Z,7.30
2018-07-23T04:03:35.932Z,8.20
2018-07-23T04:04:35.903Z,8.30
2018-07-23T04:05:35.931Z,8.10
2018-07-23T04:06:35.944Z,8.40
2018-07-23T04:07:35.979Z,8.20
2018-07-23T04:08:35.991Z,9.00
2018-07-23T04:09:36.012Z,9.30
2018-07-23T04:10:36.030Z,8.70
2018-07-23T04:11:36.050Z,8.80
2018-07-23T04:12:36.073Z,9.00
2018-07-23T04:13:36.094Z,8.80
2018-07-23T04:14:36.114Z,9.20
2018-07-23T04:15:36.140Z,8.80
2018-07-23T04:16:36.154Z,8.80
2018-07-23T04:17:36.281Z,9.10
2018-07-23T04:18:36.197Z,9.00
2018-07-23T04:19:36.214Z,8.50
2018-07-23T04:20:36.234Z,9.60
2018-07-23T04:21:36.262Z,9.20
2018-07-23T04:22:36.274Z,9.30
2018-07-23T04:23:36.331Z,9.40
2018-07-23T04:24:36.319Z,9.20
2018-07-23T04:25:36.334Z,9.40
2018-07-23T04:26:36.359Z,9.70
2018-07-23T04:27:36.380Z,9.30
2018-07-23T04:28:36.397Z,9.30
2018-07-23T04:29:36.412Z,9.20
2018-07-23T04:30:36.442Z,9.10
2018-07-23T04:31:36.453Z,9.50
2018-07-23T04:32:36.480Z,9.10
2018-07-23T04:33:36.494Z,8.90
2018-07-23T04:34:36.514Z,8.70
2018-07-23T04:35:36.536Z,8.30
2018-07-23T04:36:36.557Z,8.20
2018-07-23T04:37:36.574Z,7.70
2018-07-23T04:38:36.591Z,7.50
2018-07-23T04:39:36.615Z,7.80
2018-07-23T04:40:36.636Z,7.70
2018-07-23T04:41:36.657Z,7.60
2018-07-23T04:42:36.737Z,7.60
2018-07-23T04:43:36.700Z,7.40
2018-07-23T04:44:36.715Z,7.40
2018-07-23T04:45:36.728Z,7.30
2018-07-23T04:46:36.754Z,7.20
2018-07-23T04:47:36.777Z,7.70
2018-07-23T04:48:36.792Z,7.30
2018-07-23T04:49:36.814Z,7.20
2018-07-23T04:50:36.901Z,7.60
2018-07-23T04:51:36.852Z,7.40
2018-07-23T04:52:36.878Z,7.20
2018-07-23T04:53:36.890Z,7.20
2018-07-23T04:54:36.914Z,7.30
2018-07-23T04:55:36.934Z,7.20
2018-07-23T04:56:36.959Z,7.00
2018-07-23T04:57:36.974Z,7.20
2018-07-23T04:58:36.991Z,7.00
2018-07-23T04:59:37.011Z,7.20
2018-07-23T05:00:37.032Z,7.10
2018-07-23T05:01:37.048Z,7.20
2018-07-23T05:02:37.078Z,6.90
2018-07-23T05:03:37.098Z,7.00
2018-07-23T05:04:37.113Z,6.90
2018-07-23T05:05:37.128Z,7.30
2018-07-23T05:06:37.154Z,6.90
2018-07-23T05:07:37.181Z,7.40
2018-07-23T05:08:37.215Z,7.10
2018-07-23T05:09:37.211Z,6.90
2018-07-23T05:10:37.228Z,7.00
2018-07-23T05:11:37.266Z,7.30
2018-07-23T05:12:37.275Z,7.20
2018-07-23T05:13:37.294Z,7.00
2018-07-23T05:14:37.375Z,7.20
2018-07-23T05:15:37.383Z,7.30
2018-07-23T05:16:37.355Z,7.10
2018-07-23T05:17:37.380Z,7.00
2018-07-23T05:18:37.394Z,7.20
2018-07-23T05:19:37.416Z,7.00
2018-07-23T05:20:37.439Z,7.10
2018-07-23T05:21:37.458Z,7.10
2018-07-23T05:22:37.476Z,7.10
2018-07-23T05:23:37.505Z,7.30
2018-07-23T05:24:37.609Z,7.10
2018-07-23T05:25:37.534Z,7.50
2018-07-23T05:26:37.562Z,7.00
2018-07-23T05:27:37.584Z,7.10
2018-07-23T05:28:37.602Z,7.20
2018-07-23T05:29:37.625Z,7.50
2018-07-23T05:30:37.651Z,7.20
2018-07-23T05:31:37.713Z,7.20
2018-07-23T05:32:37.689Z,7.10
2018-07-23T05:33:37.706Z,7.60
2018-07-23T05:34:37.741Z,7.50
2018-07-23T05:35:37.760Z,7.20
2018-07-23T05:36:37.772Z,7.50
2018-07-23T05:37:37.795Z,7.50
2018-07-23T05:38:37.828Z,7.50
2018-07-23T05:39:37.831Z,7.20
2018-07-23T05:40:37.847Z,7.60
2018-07-23T05:41:37.870Z,7.70
2018-07-23T05:42:37.892Z,7.30
2018-07-23T05:43:37.911Z,7.50
2018-07-23T05:44:37.937Z,7.80
2018-07-23T05:45:37.959Z,7.40
2018-07-23T05:46:37.975Z,7.30
2018-07-23T05:47:37.992Z,7.50
2018-07-23T05:48:38.015Z,7.70
2018-07-23T05:49:38.037Z,7.20
2018-07-23T05:50:38.068Z,7.60
2018-07-23T05:51:38.075Z,7.50
2018-07-23T05:52:38.098Z,7.40
2018-07-23T05:53:38.118Z,7.40
2018-07-23T05:54:38.136Z,7.80
2018-07-23T05:55:38.160Z,7.30
2018-07-23T05:56:38.190Z,7.80
2018-07-23T05:57:38.228Z,7.60
2018-07-23T05:58:38.221Z,7.60
2018-07-23T05:59:38.241Z,7.80
2018-07-23T06:00:38.272Z,7.80
2018-07-23T06:01:38.284Z,8.10
2018-07-23T06:02:38.306Z,7.50
2018-07-23T06:03:38.342Z,7.40
2018-07-23T06:04:38.349Z,7.80
2018-07-23T06:05:38.365Z,7.60
2018-07-23T06:06:38.448Z,7.50
2018-07-23T06:07:38.414Z,7.40
2018-07-23T06:08:38.427Z,7.60
2018-07-23T06:09:38.444Z,7.80
2018-07-23T06:10:38.474Z,7.90
2018-07-23T06:11:38.495Z,7.70
2018-07-23T06:12:38.557Z,7.60
2018-07-23T06:13:38.524Z,7.60
2018-07-23T06:14:38.552Z,7.40
2018-07-23T06:15:38.575Z,7.50
2018-07-23T06:16:38.630Z,7.80
2018-07-23T06:17:38.610Z,7.60
2018-07-23T06:18:38.633Z,7.60
2018-07-23T06:19:38.662Z,7.80
2018-07-23T06:20:38.677Z,7.80
2018-07-23T06:21:38.721Z,7.80
2018-07-23T06:22:38.727Z,7.70
2018-07-23T06:23:38.743Z,7.60
2018-07-23T06:24:38.758Z,7.80
2018-07-23T06:25:38.826Z,7.80
2018-07-23T06:26:38.802Z,7.70
2018-07-23T06:27:38.819Z,7.60
2018-07-23T06:28:38.853Z,7.90
2018-07-23T06:29:38.866Z,7.60
2018-07-23T06:30:38.888Z,7.70
2018-07-23T06:31:38.905Z,7.60
2018-07-23T06:32:38.927Z,8.10
2018-07-23T06:33:38.938Z,8.10
2018-07-23T06:34:38.960Z,7.90
2018-07-23T06:35:38.985Z,7.90
2018-07-23T06:36:39.004Z,7.90
2018-07-23T06:37:39.080Z,7.90
2018-07-23T06:38:39.048Z,7.90
2018-07-23T06:39:39.082Z,8.00
2018-07-23T06:40:39.101Z,8.00
2018-07-23T06:41:39.128Z,7.50
2018-07-23T06:42:39.130Z,8.20
2018-07-23T06:43:39.174Z,7.80
2018-07-23T06:44:39.172Z,7.90
2018-07-23T06:45:39.190Z,8.10
2018-07-23T06:46:39.237Z,7.80
2018-07-23T06:47:39.234Z,8.40
2018-07-23T06:48:39.257Z,8.10
2018-07-23T06:49:39.275Z,8.20
2018-07-23T06:50:39.308Z,8.30
2018-07-23T06:51:39.316Z,8.20
2018-07-23T06:52:39.343Z,8.00
2018-07-23T06:53:39.357Z,8.00
2018-07-23T06:54:39.383Z,8.50
2018-07-23T06:55:39.404Z,8.40
2018-07-23T06:56:39.424Z,8.50
2018-07-23T06:57:39.440Z,8.40
2018-07-23T06:58:39.465Z,7.80
2018-07-23T06:59:39.505Z,8.30
2018-07-23T07:00:39.560Z,8.30
2018-07-23T07:01:39.520Z,8.10
2018-07-23T07:02:39.534Z,8.30
2018-07-23T07:03:39.572Z,8.50
2018-07-23T07:04:39.595Z,7.70
2018-07-23T07:05:39.608Z,8.10
2018-07-23T07:06:39.627Z,8.10
2018-07-23T07:07:39.650Z,8.10
2018-07-23T07:08:39.672Z,8.10
2018-07-23T07:09:39.697Z,8.10
2018-07-23T07:10:39.721Z,8.20
2018-07-23T07:11:39.737Z,8.50
2018-07-23T07:12:39.759Z,8.40
2018-07-23T07:13:39.837Z,8.60
2018-07-23T07:14:39.817Z,8.40
2018-07-23T07:15:39.820Z,8.20
2018-07-23T07:16:39.839Z,8.50
2018-07-23T07:17:39.854Z,8.20
2018-07-23T07:18:39.877Z,8.60
2018-07-23T07:19:39.902Z,8.90
2018-07-23T07:20:39.918Z,8.70
2018-07-23T07:21:39.938Z,8.40
2018-07-23T07:22:39.957Z,8.70
2018-07-23T07:23:39.984Z,8.70
2018-07-23T07:24:40.007Z,8.60
2018-07-23T07:25:40.026Z,9.00
2018-07-23T07:26:40.044Z,8.60
2018-07-23T07:27:40.077Z,8.70
2018-07-23T07:28:40.085Z,8.80
2018-07-23T07:29:40.108Z,8.90
2018-07-23T07:30:40.135Z,8.60
2018-07-23T07:31:40.147Z,8.80
2018-07-23T07:32:40.161Z,8.80
2018-07-23T07:33:40.193Z,9.00
2018-07-23T07:34:40.245Z,8.60
2018-07-23T07:35:40.229Z,8.60
2018-07-23T07:36:40.259Z,8.90
2018-07-23T07:37:40.281Z,9.00
2018-07-23T07:38:40.293Z,8.80
2018-07-23T07:39:40.306Z,9.50
2018-07-23T07:40:40.326Z,8.50
2018-07-23T07:41:40.354Z,8.90
2018-07-23T07:42:40.379Z,8.90
2018-07-23T07:43:40.394Z,9.20
2018-07-23T07:44:40.421Z,8.80
2018-07-23T07:45:40.438Z,8.80
2018-07-23T07:46:40.458Z,8.60
2018-07-23T07:47:40.489Z,9.00
2018-07-23T07:48:40.501Z,9.00
2018-07-23T07:49:40.522Z,9.00
2018-07-23T07:50:40.540Z,9.20
2018-07-23T07:51:40.587Z,8.90
2018-07-23T07:52:40.584Z,9.40
2018-07-23T07:53:40.667Z,9.00
2018-07-23T07:54:40.627Z,9.00
2018-07-23T07:55:40.654Z,9.20
2018-07-23T07:56:40.670Z,8.80
2018-07-23T07:57:40.693Z,9.00
2018-07-23T07:58:40.707Z,8.90
2018-07-23T07:59:40.730Z,9.50
2018-07-23T08:00:40.751Z,9.00
2018-07-23T08:01:40.777Z,9.10
2018-07-23T08:02:40.792Z,9.00
2018-07-23T08:03:40.812Z,8.90
2018-07-23T08:04:40.834Z,8.90
2018-07-23T08:05:40.861Z,9.10
2018-07-23T08:06:40.874Z,9.10
2018-07-23T08:07:40.896Z,8.80
2018-07-23T08:08:40.918Z,9.40
2018-07-23T08:09:40.944Z,9.10
2018-07-23T08:10:40.958Z,8.90
2018-07-23T08:11:40.981Z,9.00
2018-07-23T08:12:41.000Z,8.70
2018-07-23T08:13:41.025Z,9.40
2018-07-23T08:14:41.046Z,9.30
2018-07-23T08:15:41.074Z,9.30
2018-07-23T08:16:41.084Z,8.90
2018-07-23T08:17:41.103Z,9.20
2018-07-23T08:18:41.122Z,9.30
2018-07-23T08:19:41.151Z,8.90
2018-07-23T08:20:41.190Z,9.10
2018-07-23T08:21:41.187Z,9.70
2018-07-23T08:22:41.212Z,9.20
2018-07-23T08:23:41.236Z,9.00
2018-07-23T08:24:41.247Z,9.10
2018-07-23T08:25:41.277Z,9.40
2018-07-23T08:26:41.284Z,9.00
2018-07-23T08:27:41.324Z,9.20
2018-07-23T08:28:41.341Z,9.50
2018-07-23T08:29:41.352Z,9.50
2018-07-23T08:30:41.375Z,9.00
2018-07-23T08:31:41.464Z,9.10
2018-07-23T08:32:41.417Z,9.40
2018-07-23T08:33:41.448Z,9.50
2018-07-23T08:34:41.456Z,9.10
2018-07-23T08:35:41.599Z,9.10
2018-07-23T08:36:41.517Z,9.50
2018-07-23T08:37:41.522Z,9.30
2018-07-23T08:38:41.628Z,9.10
2018-07-23T08:39:41.562Z,9.10
2018-07-23T08:40:41.590Z,9.00
2018-07-23T08:41:41.612Z,8.90
2018-07-23T08:42:41.615Z,9.20
2018-07-23T08:43:41.667Z,8.80
2018-07-23T08:44:41.667Z,9.30
2018-07-23T08:45:41.681Z,9.30
2018-07-23T08:46:41.706Z,8.80
2018-07-23T08:47:41.728Z,9.40
2018-07-23T08:48:41.796Z,9.20
2018-07-23T08:49:41.772Z,9.00
2018-07-23T08:50:41.793Z,9.70
2018-07-23T08:51:41.804Z,9.50
2018-07-23T08:52:41.838Z,9.60
2018-07-23T08:53:41.854Z,9.60
2018-07-23T08:54:41.886Z,9.90
2018-07-23T08:55:41.893Z,9.40
2018-07-23T08:56:41.915Z,9.40
2018-07-23T08:57:41.936Z,9.20
2018-07-23T08:58:41.958Z,9.40
2018-07-23T08:59:41.979Z,9.30
2018-07-23T09:00:42.001Z,9.40
2018-07-23T09:01:42.021Z,9.20
2018-07-23T09:02:42.040Z,9.60
2018-07-23T09:03:42.068Z,9.10
2018-07-23T09:04:42.082Z,9.20
2018-07-23T09:05:42.107Z,9.40
2018-07-23T09:06:42.136Z,9.50
2018-07-23T09:07:42.155Z,9.40
2018-07-23T09:08:42.321Z,9.30
2018-07-23T09:09:42.193Z,9.40
2018-07-23T09:10:42.215Z,9.50
2018-07-23T09:11:42.243Z,9.40
2018-07-23T09:12:42.250Z,9.10
2018-07-23T09:13:42.271Z,9.00
2018-07-23T09:14:42.337Z,9.20
2018-07-23T09:15:42.550Z,9.20
2018-07-23T09:16:42.335Z,9.10
2018-07-23T09:17:42.354Z,9.20
2018-07-23T09:18:42.387Z,9.10
2018-07-23T09:19:42.402Z,8.90
2018-07-23T09:20:42.418Z,9.20
2018-07-23T09:21:42.433Z,9.30
2018-07-23T09:22:42.520Z,9.30
2018-07-23T09:23:42.509Z,9.40
2018-07-23T09:24:42.538Z,9.40
2018-07-23T09:25:42.525Z,9.60
2018-07-23T09:26:42.544Z,9.30
2018-07-23T09:27:42.577Z,9.00
2018-07-23T09:28:42.592Z,8.80
2018-07-23T09:29:42.603Z,9.10
2018-07-23T09:30:42.629Z,9.40
2018-07-23T09:31:42.650Z,9.30
2018-07-23T09:32:42.672Z,9.00
2018-07-23T09:33:42.695Z,9.80
2018-07-23T09:34:42.734Z,9.40
2018-07-23T09:35:42.734Z,9.50
2018-07-23T09:36:42.753Z,9.20
2018-07-23T09:37:42.778Z,9.10
2018-07-23T09:38:42.801Z,9.10
2018-07-23T09:39:42.815Z,9.60
2018-07-23T09:40:42.846Z,9.20
2018-07-23T09:41:42.856Z,9.30
2018-07-23T09:42:42.880Z,9.60
2018-07-23T09:43:42.896Z,9.20
2018-07-23T09:44:42.923Z,9.00
2018-07-23T09:45:42.973Z,9.00
2018-07-23T09:46:42.962Z,9.30
2018-07-23T09:47:42.980Z,9.30
2018-07-23T09:48:42.998Z,9.30
2018-07-23T09:49:43.031Z,8.80
2018-07-23T09:50:43.041Z,8.70
2018-07-23T09:51:43.161Z,9.00
2018-07-23T09:52:43.201Z,9.60
2018-07-23T09:53:43.168Z,9.00
2018-07-23T09:54:43.136Z,9.10
2018-07-23T09:55:43.148Z,8.80
2018-07-23T09:56:43.175Z,9.30
2018-07-23T09:57:43.191Z,9.10
2018-07-23T09:58:43.200Z,9.10
2018-07-23T09:59:43.233Z,9.30
2018-07-23T10:00:43.295Z,9.40
2018-07-23T10:01:43.276Z,9.10
2018-07-23T10:02:43.295Z,9.10
2018-07-23T10:03:43.312Z,9.30
2018-07-23T10:04:43.339Z,8.90
2018-07-23T10:05:43.348Z,9.00
2018-07-23T10:06:43.379Z,9.00
2018-07-23T10:07:43.404Z,9.00
2018-07-23T10:08:43.425Z,9.00
2018-07-23T10:09:43.440Z,9.10
2018-07-23T10:10:43.453Z,9.20
2018-07-23T10:11:43.487Z,9.40
2018-07-23T10:12:43.503Z,8.60
2018-07-23T10:13:43.524Z,9.30
2018-07-23T10:14:43.546Z,9.00
2018-07-23T10:15:43.565Z,9.00
2018-07-23T10:16:43.590Z,9.20
2018-07-23T10:17:43.603Z,9.30
2018-07-23T10:18:43.636Z,9.50
2018-07-23T10:19:43.659Z,9.20
2018-07-23T10:20:43.704Z,9.60
2018-07-23T10:21:43.732Z,8.90
2018-07-23T10:22:43.813Z,9.40
2018-07-23T10:23:43.753Z,8.90
2018-07-23T10:24:43.880Z,9.20
2018-07-23T10:25:43.775Z,9.40
2018-07-23T10:26:43.799Z,9.30
2018-07-23T10:27:43.822Z,9.30
2018-07-23T10:28:43.837Z,8.90
2018-07-23T10:29:43.854Z,9.00
2018-07-23T10:30:43.896Z,9.10
2018-07-23T10:31:43.899Z,8.80
2018-07-23T10:32:43.926Z,9.00
2018-07-23T10:33:43.949Z,9.10
2018-07-23T10:34:43.966Z,9.30
2018-07-23T10:35:43.985Z,9.00
2018-07-23T10:36:44.019Z,9.00
2018-07-23T10:37:44.047Z,9.20
2018-07-23T10:38:44.108Z,8.90
2018-07-23T10:39:44.072Z,9.10
2018-07-23T10:40:44.098Z,8.80
2018-07-23T10:41:44.132Z,9.30
2018-07-23T10:42:44.130Z,8.90
2018-07-23T10:43:44.144Z,9.10
2018-07-23T10:44:44.180Z,9.10
2018-07-23T10:45:44.195Z,9.40
2018-07-23T10:46:44.227Z,8.90
2018-07-23T10:47:44.309Z,9.30
2018-07-23T10:48:44.272Z,9.50
2018-07-23T10:49:44.283Z,9.00
2018-07-23T10:50:44.298Z,9.30
2018-07-23T10:51:44.320Z,9.10
2018-07-23T10:52:44.339Z,8.80
2018-07-23T10:53:44.364Z,9.20
2018-07-23T10:54:44.377Z,9.00
2018-07-23T10:55:44.401Z,9.00
2018-07-23T10:56:44.420Z,9.30
2018-07-23T10:57:44.447Z,9.10
2018-07-23T10:58:44.459Z,9.20
2018-07-23T10:59:44.498Z,9.20
2018-07-23T11:00:44.503Z,9.50
2018-07-23T11:01:44.530Z,8.90
2018-07-23T11:02:44.551Z,8.80
2018-07-23T11:03:44.602Z,8.60
2018-07-23T11:04:44.591Z,9.00
2018-07-23T11:05:44.613Z,8.90
2018-07-23T11:06:44.638Z,8.80
2018-07-23T11:07:44.654Z,9.10
2018-07-23T11:08:44.668Z,9.30
2018-07-23T11:09:44.700Z,8.70
2018-07-23T11:10:44.713Z,9.10
2018-07-23T11:11:44.741Z,8.90
2018-07-23T11:12:44.803Z,9.20
2018-07-23T11:13:44.766Z,9.30
2018-07-23T11:14:44.791Z,8.80
2018-07-23T11:15:44.809Z,9.00
2018-07-23T11:16:44.840Z,9.20
2018-07-23T11:17:44.862Z,9.00
2018-07-23T11:18:44.897Z,9.40
2018-07-23T11:19:44.897Z,9.50
2018-07-23T11:20:44.931Z,9.00
2018-07-23T11:21:44.987Z,9.00
2018-07-23T11:22:44.963Z,9.20
2018-07-23T11:23:44.994Z,9.10
2018-07-23T11:24:45.682Z,9.10
2018-07-23T11:25:45.028Z,9.10
2018-07-23T11:26:45.060Z,8.90
2018-07-23T11:27:45.069Z,9.20
2018-07-23T11:28:45.095Z,9.20
2018-07-23T11:29:45.110Z,9.50
2018-07-23T11:30:45.132Z,9.00
2018-07-23T11:31:45.156Z,9.00
2018-07-23T11:32:45.174Z,9.00
2018-07-23T11:33:45.194Z,8.90
2018-07-23T11:34:45.220Z,9.20
2018-07-23T11:35:45.247Z,8.70
2018-07-23T11:36:45.267Z,9.10
2018-07-23T11:37:45.275Z,9.00
2018-07-23T11:38:45.296Z,8.80
2018-07-23T11:39:45.318Z,9.40
2018-07-23T11:40:45.354Z,8.70
2018-07-23T11:41:45.369Z,9.00
2018-07-23T11:42:45.445Z,9.10
2018-07-23T11:43:45.400Z,8.90
2018-07-23T11:44:45.430Z,9.10
2018-07-23T11:45:45.466Z,8.90
2018-07-23T11:46:45.468Z,8.40
2018-07-23T11:47:45.484Z,8.50
2018-07-23T11:48:45.510Z,8.90
2018-07-23T11:49:45.528Z,9.00
2018-07-23T11:50:45.589Z,9.30
2018-07-23T11:51:45.581Z,9.10
2018-07-23T11:52:45.585Z,9.00
2018-07-23T11:53:45.629Z,9.10
2018-07-23T11:54:45.665Z,9.20
2018-07-23T11:55:45.679Z,8.90
2018-07-23T11:56:45.728Z,8.90
2018-07-23T11:57:45.693Z,8.90
2018-07-23T11:58:45.729Z,8.90
2018-07-23T11:59:45.744Z,9.00
2018-07-23T12:00:45.823Z,8.80
2018-07-23T12:01:45.796Z,9.30
2018-07-23T12:02:45.801Z,8.80
2018-07-23T12:03:45.824Z,8.50
2018-07-23T12:04:45.945Z,9.00
2018-07-23T12:05:45.862Z,8.90
2018-07-23T12:06:45.889Z,8.80
2018-07-23T12:07:45.907Z,8.80
2018-07-23T12:08:45.960Z,8.80
2018-07-23T12:09:45.951Z,9.00
2018-07-23T12:10:45.999Z,8.70
2018-07-23T12:11:46.001Z,8.60
2018-07-23T12:12:46.013Z,8.40
2018-07-23T12:13:46.047Z,8.50
2018-07-23T12:14:46.048Z,8.40
2018-07-23T12:15:46.072Z,8.90
2018-07-23T12:16:46.101Z,9.10
2018-07-23T12:17:46.111Z,9.00
2018-07-23T12:18:46.133Z,8.90
2018-07-23T12:19:46.172Z,8.70
2018-07-23T12:20:46.180Z,8.50
2018-07-23T12:21:46.228Z,8.80
2018-07-23T12:22:46.219Z,9.10
2018-07-23T12:23:46.245Z,8.80
2018-07-23T12:24:46.267Z,8.80
2018-07-23T12:25:46.283Z,8.90
2018-07-23T12:26:46.303Z,9.00
2018-07-23T12:27:46.325Z,8.90
2018-07-23T12:28:46.349Z,9.00
2018-07-23T12:29:46.365Z,8.70
2018-07-23T12:30:46.385Z,9.10
2018-07-23T12:31:46.490Z,8.80
2018-07-23T12:32:46.426Z,8.50
2018-07-23T12:33:46.444Z,8.80
2018-07-23T12:34:46.477Z,8.60
2018-07-23T12:35:46.492Z,8.70
2018-07-23T12:36:46.513Z,8.50
2018-07-23T12:37:46.528Z,8.80
2018-07-23T12:38:46.555Z,8.60
2018-07-23T12:39:46.636Z,8.50
2018-07-23T12:40:46.592Z,8.90
2018-07-23T12:41:46.617Z,9.10
2018-07-23T12:42:46.723Z,8.50
2018-07-23T12:43:46.811Z,8.70
2018-07-23T12:44:46.682Z,8.50
2018-07-23T12:45:46.703Z,8.90
2018-07-23T12:46:46.730Z,8.70
2018-07-23T12:47:46.743Z,8.50
2018-07-23T12:48:46.763Z,8.60
2018-07-23T12:49:46.798Z,8.70
2018-07-23T12:50:46.805Z,8.90
2018-07-23T12:51:46.870Z,8.40
2018-07-23T12:52:46.905Z,8.80
2018-07-23T12:53:46.868Z,8.80
2018-07-23T12:54:46.892Z,8.50
2018-07-23T12:55:46.909Z,8.60
2018-07-23T12:56:46.938Z,8.40
2018-07-23T12:57:46.953Z,8.50
2018-07-23T12:58:46.976Z,8.80
2018-07-23T12:59:47.001Z,8.30
2018-07-23T13:00:47.015Z,8.90
2018-07-23T13:01:47.030Z,8.90
2018-07-23T13:02:47.055Z,8.60
2018-07-23T13:03:47.066Z,8.40
2018-07-23T13:04:47.101Z,8.30
2018-07-23T13:05:47.118Z,8.50
2018-07-23T13:06:47.139Z,9.00
2018-07-23T13:07:47.159Z,8.80
2018-07-23T13:08:47.183Z,8.60
2018-07-23T13:09:47.201Z,8.40
2018-07-23T13:10:47.223Z,8.50
2018-07-23T13:11:47.248Z,8.50
2018-07-23T13:12:47.279Z,8.70
2018-07-23T13:13:47.283Z,8.50
2018-07-23T13:14:47.349Z,8.70
2018-07-23T13:15:47.347Z,8.60
2018-07-23T13:16:47.355Z,8.30
2018-07-23T13:17:47.368Z,8.80
2018-07-23T13:18:47.419Z,8.40